Time,TemperatureF,DewpointF,PressureIn,WindDirection,WindDirectionDegrees,WindSpeedMPH,WindSpeedGustMPH,Humidity,HourlyPrecipIn,Conditions,Clouds,dailyrainin,SoftwareType,DateUTC
2013-10-04 00:00:00,65.8,62.8,29.93,SSW,201,18.4,18.4,90,0.06,CLR,,0.36,WeatherDisplay:10.37,2013-10-04 05:00:00,
2013-10-04 00:04:00,66.0,63.0,29.93,SSW,196,16.0,21.0,90,0.01,RA,,0.37,WeatherDisplay:10.37,2013-10-04 05:04:00,
2013-10-04 00:06:00,66.1,63.1,29.93,SSW,194,19.0,19.0,90,0.07,RA,,0.37,WeatherDisplay:10.37,2013-10-04 05:06:00,
2013-10-04 00:09:00,66.3,63.0,29.93,SSW,202,19.6,19.6,89,0.07,RA,,0.37,WeatherDisplay:10.37,2013-10-04 05:09:00,
2013-10-04 00:11:00,66.3,63.0,29.93,SSW,192,16.1,16.1,89,0.07,RA,,0.37,WeatherDisplay:10.37,2013-10-04 05:11:00,
2013-10-04 00:13:00,66.5,63.2,29.92,SSW,193,19.6,19.6,89,0.07,RA,,0.37,WeatherDisplay:10.37,2013-10-04 05:13:00,
2013-10-04 00:14:00,66.5,63.2,29.92,South,190,14.0,20.0,89,0.00,,,0.37,WeatherDisplay:10.37,2013-10-04 05:14:00,
2013-10-04 00:15:00,66.6,63.3,29.92,South,181,19.6,19.6,89,0.07,,,0.37,WeatherDisplay:10.37,2013-10-04 05:15:00,
2013-10-04 00:17:00,66.7,63.0,29.92,South,175,17.3,17.3,88,0.07,CLR,,0.37,WeatherDisplay:10.37,2013-10-04 05:17:00,
2013-10-04 00:19:00,66.8,63.1,29.92,SSW,205,17.3,17.3,88,0.07,CLR,,0.37,WeatherDisplay:10.37,2013-10-04 05:19:00,
2013-10-04 00:24:00,67.0,63.0,29.92,SSW,192,11.5,11.5,87,0.07,CLR,,0.37,WeatherDisplay:10.37,2013-10-04 05:24:00,
2013-10-04 00:27:00,67.1,63.1,29.93,SSW,201,11.5,11.5,87,0.07,CLR,,0.37,WeatherDisplay:10.37,2013-10-04 05:27:00,
2013-10-04 00:32:00,67.0,63.0,29.93,SSW,196,11.5,11.5,87,0.06,CLR,,0.37,WeatherDisplay:10.37,2013-10-04 05:32:00,
2013-10-04 00:37:00,66.9,62.9,29.93,South,189,10.4,10.4,87,0.06,CLR,,0.37,WeatherDisplay:10.37,2013-10-04 05:37:00,
2013-10-04 00:42:00,66.9,62.9,29.93,South,191,9.2,9.2,87,0.04,CLR,,0.37,WeatherDisplay:10.37,2013-10-04 05:42:00,
2013-10-04 00:47:00,66.8,62.8,29.93,South,184,10.4,10.4,87,0.02,CLR,,0.37,WeatherDisplay:10.37,2013-10-04 05:47:00,
2013-10-04 00:52:00,66.7,62.7,29.93,SSW,194,11.5,11.5,87,0.01,CLR,,0.37,WeatherDisplay:10.37,2013-10-04 05:52:00,
2013-10-04 00:57:00,66.7,62.7,29.93,SSW,192,11.5,11.5,87,0.01,CLR,,0.37,WeatherDisplay:10.37,2013-10-04 05:57:00,
2013-10-04 01:02:00,66.7,62.7,29.92,South,177,7.0,7.0,87,0.01,RA,,0.00,WeatherDisplay:10.37,2013-10-04 06:02:00,
2013-10-04 01:07:00,66.6,62.9,29.92,South,169,10.4,10.4,88,0.00,RA,,0.00,WeatherDisplay:10.37,2013-10-04 06:07:00,
2013-10-04 01:12:00,66.5,62.8,29.92,South,178,9.2,9.2,88,0.00,CLR,,0.00,WeatherDisplay:10.37,2013-10-04 06:12:00,
2013-10-04 01:17:00,66.3,63.0,29.92,South,175,9.2,9.2,89,0.00,CLR,,0.00,WeatherDisplay:10.37,2013-10-04 06:17:00,
2013-10-04 01:22:00,66.2,62.9,29.93,South,171,5.8,5.8,89,0.00,CLR,,0.00,WeatherDisplay:10.37,2013-10-04 06:22:00,
2013-10-04 01:27:00,66.0,62.7,29.92,South,169,9.0,9.0,89,0.00,CLR,,0.00,WeatherDisplay:10.37,2013-10-04 06:27:00,
2013-10-04 01:32:00,65.8,62.8,29.93,South,169,5.8,5.8,90,0.00,CLR,,0.00,WeatherDisplay:10.37,2013-10-04 06:32:00,
2013-10-04 01:37:00,65.7,62.7,29.92,South,169,4.6,4.6,90,0.00,CLR,,0.00,WeatherDisplay:10.37,2013-10-04 06:37:00,
2013-10-04 01:42:00,65.6,62.6,29.93,South,169,4.6,4.6,90,0.00,CLR,,0.00,WeatherDisplay:10.37,2013-10-04 06:42:00,
2013-10-04 01:47:00,65.5,62.8,29.93,South,169,5.0,5.0,91,0.00,CLR,,0.00,WeatherDisplay:10.37,2013-10-04 06:47:00,
2013-10-04 01:52:00,65.5,63.1,29.93,South,169,3.5,3.5,92,0.00,CLR,,0.00,WeatherDisplay:10.37,2013-10-04 06:52:00,
2013-10-04 01:57:00,65.4,62.7,29.93,South,169,4.0,4.0,91,0.00,CLR,,0.00,WeatherDisplay:10.37,2013-10-04 06:57:00,
2013-10-04 02:02:00,65.4,62.7,29.93,South,169,2.3,2.3,91,0.00,CLR,,0.00,WeatherDisplay:10.37,2013-10-04 07:02:00,
2013-10-04 02:07:00,65.3,62.6,29.93,South,169,3.5,3.5,91,0.00,CLR,,0.00,WeatherDisplay:10.37,2013-10-04 07:07:00,
2013-10-04 02:12:00,65.2,62.8,29.93,South,169,3.5,3.5,92,0.00,CLR,,0.00,WeatherDisplay:10.37,2013-10-04 07:12:00,
2013-10-04 02:17:00,65.2,62.8,29.93,South,169,4.0,4.0,92,0.00,CLR,,0.00,WeatherDisplay:10.37,2013-10-04 07:17:00,
2013-10-04 02:22:00,65.2,62.8,29.92,South,169,5.8,5.8,92,0.00,CLR,,0.00,WeatherDisplay:10.37,2013-10-04 07:22:00,
2013-10-04 02:27:00,65.2,62.8,29.92,SSE,167,7.0,7.0,92,0.00,CLR,,0.00,WeatherDisplay:10.37,2013-10-04 07:27:00,
2013-10-04 02:32:00,65.1,62.7,29.92,SSE,167,4.6,4.6,92,0.00,CLR,,0.00,WeatherDisplay:10.37,2013-10-04 07:32:00,
2013-10-04 02:37:00,65.0,62.6,29.93,SSE,167,5.0,5.0,92,0.00,CLR,,0.00,WeatherDisplay:10.37,2013-10-04 07:37:00,
2013-10-04 02:42:00,65.0,62.9,29.93,SSE,167,5.0,5.0,93,0.00,CLR,,0.00,WeatherDisplay:10.37,2013-10-04 07:42:00,
2013-10-04 02:47:00,65.0,62.9,29.93,SSE,165,4.0,4.0,93,0.00,CLR,,0.00,WeatherDisplay:10.37,2013-10-04 07:47:00,
2013-10-04 02:52:00,65.1,63.0,29.92,SSE,165,3.5,3.5,93,0.00,CLR,,0.00,WeatherDisplay:10.37,2013-10-04 07:52:00,
2013-10-04 02:57:00,65.2,63.1,29.93,SSE,165,6.9,6.9,93,0.00,CLR,,0.00,WeatherDisplay:10.37,2013-10-04 07:57:00,
2013-10-04 03:02:00,65.4,63.3,29.92,SSE,166,6.0,6.0,93,0.00,CLR,,0.00,WeatherDisplay:10.37,2013-10-04 08:02:00,
2013-10-04 03:07:00,65.6,63.2,29.92,SSE,166,5.8,5.8,92,0.00,CLR,,0.00,WeatherDisplay:10.37,2013-10-04 08:07:00,
2013-10-04 03:12:00,65.7,63.3,29.92,SSE,163,5.8,5.8,92,0.00,CLR,,0.00,WeatherDisplay:10.37,2013-10-04 08:12:00,
2013-10-04 03:17:00,65.8,63.4,29.92,SSE,163,5.8,5.8,92,0.00,CLR,,0.00,WeatherDisplay:10.37,2013-10-04 08:17:00,
2013-10-04 03:22:00,65.8,63.4,29.92,SSE,166,9.2,9.2,92,0.00,CLR,,0.00,WeatherDisplay:10.37,2013-10-04 08:22:00,
2013-10-04 03:27:00,65.9,63.2,29.92,South,171,4.6,5.3,91,0.00,CLR,,0.00,WeatherDisplay:10.37,2013-10-04 08:27:00,
2013-10-04 03:32:00,66.0,63.3,29.92,South,170,9.2,9.2,91,0.00,CLR,,0.00,WeatherDisplay:10.37,2013-10-04 08:32:00,
2013-10-04 03:37:00,66.1,63.4,29.92,South,171,6.9,6.9,91,0.00,CLR,,0.00,WeatherDisplay:10.37,2013-10-04 08:37:00,
2013-10-04 03:42:00,66.1,63.4,29.92,South,170,6.9,6.9,91,0.00,CLR,,0.00,WeatherDisplay:10.37,2013-10-04 08:42:00,
2013-10-04 03:48:00,66.2,63.5,29.92,South,174,10.4,10.4,91,0.00,CLR,,0.00,WeatherDisplay:10.37,2013-10-04 08:48:00,
2013-10-04 03:53:00,66.3,63.3,29.91,South,178,9.2,9.2,90,0.00,CLR,,0.00,WeatherDisplay:10.37,2013-10-04 08:53:00,
2013-10-04 03:58:00,66.4,63.4,29.91,South,175,10.4,10.4,90,0.00,CLR,,0.00,WeatherDisplay:10.37,2013-10-04 08:58:00,
2013-10-04 04:03:00,66.4,63.4,29.92,SSE,168,6.9,6.9,90,0.00,CLR,,0.00,WeatherDisplay:10.37,2013-10-04 09:03:00,
2013-10-04 04:08:00,66.4,63.4,29.91,South,172,6.9,6.9,90,0.00,CLR,,0.00,WeatherDisplay:10.37,2013-10-04 09:08:00,
2013-10-04 04:13:00,66.4,63.4,29.92,South,173,5.8,5.8,90,0.00,CLR,,0.00,WeatherDisplay:10.37,2013-10-04 09:13:00,
2013-10-04 04:18:00,66.4,63.4,29.92,South,171,6.9,6.9,90,0.00,CLR,,0.00,WeatherDisplay:10.37,2013-10-04 09:18:00,
2013-10-04 04:23:00,66.4,63.4,29.92,South,171,9.2,9.2,90,0.00,CLR,,0.00,WeatherDisplay:10.37,2013-10-04 09:23:00,
2013-10-04 04:28:00,66.4,63.4,29.92,South,171,5.8,5.8,90,0.00,CLR,,0.00,WeatherDisplay:10.37,2013-10-04 09:28:00,
2013-10-04 04:33:00,66.3,63.3,29.93,South,171,3.5,3.5,90,0.00,CLR,,0.00,WeatherDisplay:10.37,2013-10-04 09:33:00,
2013-10-04 04:38:00,66.4,63.4,29.93,South,171,6.9,6.9,90,0.00,CLR,,0.00,WeatherDisplay:10.37,2013-10-04 09:38:00,
2013-10-04 04:43:00,66.4,63.4,29.93,South,171,3.5,3.5,90,0.00,CLR,,0.00,WeatherDisplay:10.37,2013-10-04 09:43:00,
2013-10-04 04:48:00,66.4,63.4,29.93,South,171,8.1,8.1,90,0.00,CLR,,0.00,WeatherDisplay:10.37,2013-10-04 09:48:00,
2013-10-04 04:53:00,66.5,63.5,29.93,South,171,3.5,3.5,90,0.00,CLR,,0.00,WeatherDisplay:10.37,2013-10-04 09:53:00,
2013-10-04 04:58:00,66.5,63.5,29.93,South,171,3.5,3.5,90,0.00,CLR,,0.00,WeatherDisplay:10.37,2013-10-04 09:58:00,
2013-10-04 05:03:00,66.7,63.7,29.93,South,178,5.0,5.0,90,0.00,CLR,,0.00,WeatherDisplay:10.37,2013-10-04 10:03:00,
2013-10-04 05:08:00,67.0,64.0,29.93,South,182,9.2,9.2,90,0.00,CLR,,0.00,WeatherDisplay:10.37,2013-10-04 10:08:00,
2013-10-04 05:13:00,67.2,64.2,29.93,South,184,5.8,5.8,90,0.00,CLR,,0.00,WeatherDisplay:10.37,2013-10-04 10:13:00,
2013-10-04 05:18:00,67.4,64.4,29.93,South,186,11.5,11.5,90,0.00,CLR,,0.00,WeatherDisplay:10.37,2013-10-04 10:18:00,
2013-10-04 05:23:00,67.6,64.6,29.93,South,188,10.4,10.4,90,0.00,CLR,,0.00,WeatherDisplay:10.37,2013-10-04 10:23:00,
2013-10-04 05:28:00,67.8,64.4,29.93,South,187,6.9,6.9,89,0.00,CLR,,0.00,WeatherDisplay:10.37,2013-10-04 10:28:00,
2013-10-04 05:33:00,67.9,64.5,29.93,South,184,11.5,11.5,89,0.00,CLR,,0.00,WeatherDisplay:10.37,2013-10-04 10:33:00,
2013-10-04 05:38:00,68.0,64.6,29.94,SSW,195,11.5,11.5,89,0.00,CLR,,0.00,WeatherDisplay:10.37,2013-10-04 10:38:00,
2013-10-04 05:43:00,68.1,64.7,29.93,SSW,195,13.8,13.8,89,0.00,CLR,,0.00,WeatherDisplay:10.37,2013-10-04 10:43:00,
2013-10-04 05:48:00,68.1,64.7,29.94,SSW,192,11.5,11.5,89,0.00,CLR,,0.00,WeatherDisplay:10.37,2013-10-04 10:48:00,
2013-10-04 05:53:00,68.1,64.7,29.94,SSW,197,10.4,10.4,89,0.00,CLR,,0.00,WeatherDisplay:10.37,2013-10-04 10:53:00,
2013-10-04 05:58:00,68.1,64.7,29.94,SSW,196,9.2,9.2,89,0.00,CLR,,0.00,WeatherDisplay:10.37,2013-10-04 10:58:00,
2013-10-04 06:03:00,68.0,64.6,29.94,SSW,194,11.5,11.5,89,0.00,CLR,,0.00,WeatherDisplay:10.37,2013-10-04 11:03:00,
2013-10-04 06:08:00,68.0,64.6,29.94,SSW,197,11.5,11.5,89,0.00,CLR,,0.00,WeatherDisplay:10.37,2013-10-04 11:08:00,
2013-10-04 06:13:00,68.0,64.6,29.95,SSW,200,10.0,10.0,89,0.00,CLR,,0.00,WeatherDisplay:10.37,2013-10-04 11:13:00,
2013-10-04 06:18:00,68.1,64.7,29.94,SSW,200,6.9,6.9,89,0.00,CLR,,0.00,WeatherDisplay:10.37,2013-10-04 11:18:00,
2013-10-04 06:23:00,68.0,64.6,29.95,SSW,194,11.5,11.5,89,0.00,CLR,,0.00,WeatherDisplay:10.37,2013-10-04 11:23:00,
2013-10-04 06:28:00,67.9,64.5,29.95,SSW,202,10.4,10.4,89,0.00,CLR,,0.00,WeatherDisplay:10.37,2013-10-04 11:28:00,
2013-10-04 06:33:00,67.9,64.5,29.95,SSW,198,10.4,10.4,89,0.00,CLR,,0.00,WeatherDisplay:10.37,2013-10-04 11:33:00,
2013-10-04 06:38:00,67.9,64.9,29.95,SSW,195,11.5,11.5,90,0.00,CLR,,0.00,WeatherDisplay:10.37,2013-10-04 11:38:00,
2013-10-04 06:43:00,68.0,65.0,29.95,SSW,200,11.5,11.5,90,0.00,CLR,,0.00,WeatherDisplay:10.37,2013-10-04 11:43:00,
2013-10-04 06:48:00,68.0,65.0,29.95,SSW,192,11.5,11.5,90,0.00,CLR,,0.00,WeatherDisplay:10.37,2013-10-04 11:48:00,
2013-10-04 06:53:00,68.1,65.1,29.95,SSW,204,11.5,11.5,90,0.00,CLR,,0.00,WeatherDisplay:10.37,2013-10-04 11:53:00,
2013-10-04 06:58:00,68.2,65.2,29.96,SSW,198,15.0,15.0,90,0.00,CLR,,0.00,WeatherDisplay:10.37,2013-10-04 11:58:00,
2013-10-04 07:03:00,68.3,65.3,29.96,South,190,13.8,13.8,90,0.00,CLR,,0.00,WeatherDisplay:10.37,2013-10-04 12:03:00,
2013-10-04 07:08:00,68.4,65.4,29.95,SSW,202,11.5,11.5,90,0.00,CLR,,0.00,WeatherDisplay:10.37,2013-10-04 12:08:00,
2013-10-04 07:13:00,68.5,65.4,29.96,SSW,201,12.7,12.7,90,0.00,CLR,,0.00,WeatherDisplay:10.37,2013-10-04 12:13:00,
2013-10-04 07:18:00,68.5,65.4,29.95,South,188,11.5,11.5,90,0.00,CLR,,0.00,WeatherDisplay:10.37,2013-10-04 12:18:00,
2013-10-04 07:23:00,68.5,65.4,29.95,South,186,10.4,10.4,90,0.00,CLR,,0.00,WeatherDisplay:10.37,2013-10-04 12:23:00,
2013-10-04 07:28:00,68.6,65.5,29.94,SSW,192,13.8,13.8,90,0.00,CLR,,0.00,WeatherDisplay:10.37,2013-10-04 12:28:00,
2013-10-04 07:33:00,68.6,65.5,29.95,SSW,194,12.7,12.7,90,0.00,CLR,,0.00,WeatherDisplay:10.37,2013-10-04 12:33:00,
2013-10-04 07:38:00,68.8,65.7,29.95,SSW,200,11.5,11.5,90,0.00,CLR,,0.00,WeatherDisplay:10.37,2013-10-04 12:38:00,
2013-10-04 07:43:00,68.9,65.8,29.94,SSW,209,11.5,11.5,90,0.00,CLR,,0.00,WeatherDisplay:10.37,2013-10-04 12:43:00,
2013-10-04 07:48:00,69.1,66.0,29.95,South,189,12.7,12.7,90,0.00,CLR,,0.00,WeatherDisplay:10.37,2013-10-04 12:48:00,
2013-10-04 07:53:00,69.4,66.3,29.95,SW,215,11.5,11.5,90,0.00,CLR,,0.00,WeatherDisplay:10.37,2013-10-04 12:53:00,
2013-10-04 07:58:00,69.6,66.5,29.94,SSW,198,15.0,15.0,90,0.00,CLR,,0.00,WeatherDisplay:10.37,2013-10-04 12:58:00,
2013-10-04 08:03:00,69.8,66.7,29.95,South,189,13.8,13.8,90,0.00,CLR,,0.00,WeatherDisplay:10.37,2013-10-04 13:03:00,
2013-10-04 08:08:00,70.0,66.9,29.95,SSW,198,15.0,15.0,90,0.00,CLR,,0.00,WeatherDisplay:10.37,2013-10-04 13:08:00,
2013-10-04 08:13:00,70.2,66.8,29.95,SSW,199,17.0,17.0,89,0.00,CLR,,0.00,WeatherDisplay:10.37,2013-10-04 13:13:00,
2013-10-04 08:18:00,70.4,67.0,29.95,SSW,198,11.0,11.0,89,0.00,CLR,,0.00,WeatherDisplay:10.37,2013-10-04 13:18:00,
2013-10-04 08:23:00,70.6,67.2,29.95,SSW,198,13.0,13.0,89,0.00,CLR,,0.00,WeatherDisplay:10.37,2013-10-04 13:23:00,
2013-10-04 08:28:00,70.8,67.4,29.95,SSW,209,11.5,11.5,89,0.00,CLR,,0.00,WeatherDisplay:10.37,2013-10-04 13:28:00,
2013-10-04 08:33:00,71.0,67.6,29.95,SSW,206,15.0,15.0,89,0.00,CLR,,0.00,WeatherDisplay:10.37,2013-10-04 13:33:00,
2013-10-04 08:38:00,71.2,67.8,29.95,SW,217,11.5,11.5,89,0.00,CLR,,0.00,WeatherDisplay:10.37,2013-10-04 13:38:00,
2013-10-04 08:43:00,71.3,67.9,29.95,SW,221,15.0,15.0,89,0.00,CLR,,0.00,WeatherDisplay:10.37,2013-10-04 13:43:00,
2013-10-04 08:48:00,71.6,67.9,29.95,SSW,200,9.2,9.2,88,0.00,CLR,,0.00,WeatherDisplay:10.37,2013-10-04 13:48:00,
2013-10-04 08:53:00,72.0,68.2,29.95,SW,219,11.5,11.5,88,0.00,CLR,,0.00,WeatherDisplay:10.37,2013-10-04 13:53:00,
2013-10-04 08:58:00,72.3,68.5,29.95,SW,223,11.5,11.5,88,0.00,CLR,,0.00,WeatherDisplay:10.37,2013-10-04 13:58:00,
2013-10-04 09:03:00,72.7,68.6,29.96,SW,234,9.2,9.2,87,0.00,CLR,,0.00,WeatherDisplay:10.37,2013-10-04 14:03:00,
2013-10-04 09:08:00,73.0,68.9,29.96,SSW,207,12.7,12.7,87,0.00,CLR,,0.00,WeatherDisplay:10.37,2013-10-04 14:08:00,
2013-10-04 09:13:00,73.3,69.2,29.95,SSW,211,9.2,9.2,87,0.00,CLR,,0.00,WeatherDisplay:10.37,2013-10-04 14:13:00,
2013-10-04 09:18:00,73.6,69.2,29.96,SW,224,11.5,11.5,86,0.00,CLR,,0.00,WeatherDisplay:10.37,2013-10-04 14:18:00,
2013-10-04 09:24:00,74.1,69.6,29.95,SW,214,8.1,8.1,86,0.00,CLR,,0.00,WeatherDisplay:10.37,2013-10-04 14:24:00,
2013-10-04 09:29:00,74.2,69.4,29.95,SW,225,11.5,11.5,85,0.00,CLR,,0.00,WeatherDisplay:10.37,2013-10-04 14:29:00,
2013-10-04 09:34:00,74.7,69.9,29.95,SW,218,8.1,8.1,85,0.00,CLR,,0.00,WeatherDisplay:10.37,2013-10-04 14:34:00,
2013-10-04 09:39:00,74.9,69.7,29.96,SW,217,10.4,10.9,84,0.00,CLR,,0.00,WeatherDisplay:10.37,2013-10-04 14:39:00,
2013-10-04 09:44:00,75.1,69.9,29.96,SSW,192,11.5,11.5,84,0.00,CLR,,0.00,WeatherDisplay:10.37,2013-10-04 14:44:00,
2013-10-04 09:49:00,75.6,70.4,29.96,SSW,202,14.0,14.0,84,0.00,CLR,,0.00,WeatherDisplay:10.37,2013-10-04 14:49:00,
2013-10-04 09:54:00,75.6,70.1,29.96,SSW,204,16.1,16.1,83,0.00,CLR,,0.00,WeatherDisplay:10.37,2013-10-04 14:54:00,
2013-10-04 09:59:00,75.8,70.3,29.96,SW,217,15.0,15.0,83,0.00,CLR,,0.00,WeatherDisplay:10.37,2013-10-04 14:59:00,
2013-10-04 10:04:00,76.1,70.6,29.96,SW,221,9.2,9.2,83,0.00,CLR,,0.00,WeatherDisplay:10.37,2013-10-04 15:04:00,
2013-10-04 10:09:00,76.4,70.5,29.96,SW,227,17.3,17.3,82,0.00,CLR,,0.00,WeatherDisplay:10.37,2013-10-04 15:09:00,
2013-10-04 10:14:00,76.4,70.5,29.96,SSW,211,16.1,16.1,82,0.00,CLR,,0.00,WeatherDisplay:10.37,2013-10-04 15:14:00,
2013-10-04 10:17:00,76.3,70.4,29.95,SSW,205,19.0,19.0,82,0.00,CLR,,0.00,WeatherDisplay:10.37,2013-10-04 15:17:00,
2013-10-04 10:22:00,76.6,70.7,29.95,SW,223,16.0,16.0,82,0.00,CLR,,0.00,WeatherDisplay:10.37,2013-10-04 15:22:00,
2013-10-04 10:27:00,76.9,70.6,29.95,South,177,19.6,19.6,81,0.00,CLR,,0.00,WeatherDisplay:10.37,2013-10-04 15:27:00,
2013-10-04 10:32:00,77.6,70.9,29.95,West,274,19.6,19.6,80,0.00,CLR,,0.00,WeatherDisplay:10.37,2013-10-04 15:32:00,
2013-10-04 10:37:00,77.9,71.2,29.95,West,260,15.0,15.0,80,0.00,CLR,,0.00,WeatherDisplay:10.37,2013-10-04 15:37:00,
2013-10-04 10:42:00,78.0,71.0,29.95,SW,233,18.4,18.4,79,0.00,CLR,,0.00,WeatherDisplay:10.37,2013-10-04 15:42:00,
2013-10-04 10:47:00,77.9,70.9,29.95,SSW,199,13.8,13.8,79,0.00,CLR,,0.00,WeatherDisplay:10.37,2013-10-04 15:47:00,
2013-10-04 10:52:00,78.1,71.1,29.96,SW,223,8.1,9.2,79,0.00,CLR,,0.00,WeatherDisplay:10.37,2013-10-04 15:52:00,
2013-10-04 10:57:00,78.1,70.7,29.95,SSW,203,19.6,19.6,78,0.00,CLR,,0.00,WeatherDisplay:10.37,2013-10-04 15:57:00,
2013-10-04 11:02:00,78.0,70.6,29.95,SW,225,14.0,14.0,78,0.00,CLR,,0.00,WeatherDisplay:10.37,2013-10-04 16:02:00,
2013-10-04 11:07:00,78.3,70.9,29.95,SSW,213,12.0,12.0,78,0.00,CLR,,0.00,WeatherDisplay:10.37,2013-10-04 16:07:00,
2013-10-04 11:12:00,78.5,70.7,29.95,SSW,201,19.6,19.6,77,0.00,CLR,,0.00,WeatherDisplay:10.37,2013-10-04 16:12:00,
2013-10-04 11:17:00,78.6,70.4,29.95,SSW,209,19.6,19.6,76,0.00,CLR,,0.00,WeatherDisplay:10.37,2013-10-04 16:17:00,
2013-10-04 11:22:00,78.7,70.5,29.95,SW,215,24.2,24.2,76,0.00,CLR,,0.00,WeatherDisplay:10.37,2013-10-04 16:22:00,
2013-10-04 11:27:00,78.5,70.3,29.95,SSW,196,17.3,17.3,76,0.00,CLR,,0.00,WeatherDisplay:10.37,2013-10-04 16:27:00,
2013-10-04 11:32:00,78.4,70.6,29.95,SW,236,16.1,16.1,77,0.00,CLR,,0.00,WeatherDisplay:10.37,2013-10-04 16:32:00,
2013-10-04 11:37:00,78.7,70.9,29.95,SSW,198,10.4,10.4,77,0.00,CLR,,0.00,WeatherDisplay:10.37,2013-10-04 16:37:00,
2013-10-04 11:42:00,79.0,71.2,29.95,WSW,243,10.4,10.4,77,0.00,CLR,,0.00,WeatherDisplay:10.37,2013-10-04 16:42:00,
2013-10-04 11:47:00,79.5,71.3,29.95,South,187,8.0,8.0,76,0.00,CLR,,0.00,WeatherDisplay:10.37,2013-10-04 16:47:00,
2013-10-04 11:52:00,79.5,70.9,29.95,SSW,198,18.4,18.4,75,0.00,CLR,,0.00,WeatherDisplay:10.37,2013-10-04 16:52:00,
2013-10-04 11:57:00,79.4,70.8,29.94,SSW,213,11.5,11.5,75,0.00,CLR,,0.00,WeatherDisplay:10.37,2013-10-04 16:57:00,
2013-10-04 12:02:00,79.5,70.9,29.94,SSW,196,11.5,11.5,75,0.00,CLR,,0.00,WeatherDisplay:10.37,2013-10-04 17:02:00,
2013-10-04 12:07:00,79.8,70.8,29.94,SSW,194,9.2,9.2,74,0.00,CLR,,0.00,WeatherDisplay:10.37,2013-10-04 17:07:00,
2013-10-04 12:12:00,80.4,70.5,29.94,South,180,15.0,15.0,72,0.00,CLR,,0.00,WeatherDisplay:10.37,2013-10-04 17:12:00,
2013-10-04 12:17:00,80.5,70.6,29.95,South,185,10.4,10.4,72,0.00,CLR,,0.00,WeatherDisplay:10.37,2013-10-04 17:17:00,
2013-10-04 12:23:00,81.1,70.8,29.95,South,182,13.8,13.8,71,0.00,CLR,,0.00,WeatherDisplay:10.37,2013-10-04 17:23:00,
2013-10-04 12:28:00,81.1,70.8,29.94,South,170,11.5,11.5,71,0.00,CLR,,0.00,WeatherDisplay:10.37,2013-10-04 17:28:00,
2013-10-04 12:33:00,81.1,70.8,29.95,South,190,13.8,13.8,71,0.00,CLR,,0.00,WeatherDisplay:10.37,2013-10-04 17:33:00,
2013-10-04 13:03:00,81.7,70.5,29.93,SSW,198,18.4,18.4,69,0.00,CLR,,0.00,WeatherDisplay:10.37,2013-10-04 18:03:00,
2013-10-04 13:08:00,82.1,69.6,29.93,SSW,192,19.6,19.6,66,0.00,CLR,,0.00,WeatherDisplay:10.37,2013-10-04 18:08:00,
2013-10-04 13:13:00,82.8,70.3,29.93,SSE,168,11.5,11.5,66,0.00,CLR,,0.00,WeatherDisplay:10.37,2013-10-04 18:13:00,
2013-10-04 13:18:00,82.7,70.2,29.93,SSW,213,12.7,12.7,66,0.00,CLR,,0.00,WeatherDisplay:10.37,2013-10-04 18:18:00,
2013-10-04 13:23:00,82.8,70.3,29.92,SW,215,13.8,13.8,66,0.00,CLR,,0.00,WeatherDisplay:10.37,2013-10-04 18:23:00,
2013-10-04 13:28:00,82.8,70.3,29.92,South,190,11.5,11.5,66,0.00,CLR,,0.00,WeatherDisplay:10.37,2013-10-04 18:28:00,
2013-10-04 13:33:00,83.0,70.0,29.92,South,182,11.5,11.5,65,0.00,CLR,,0.00,WeatherDisplay:10.37,2013-10-04 18:33:00,
2013-10-04 13:38:00,83.5,70.5,29.92,SE,136,10.0,10.0,65,0.00,CLR,,0.00,WeatherDisplay:10.37,2013-10-04 18:38:00,
2013-10-04 13:43:00,83.4,69.9,29.91,SW,236,15.0,15.0,64,0.00,CLR,,0.00,WeatherDisplay:10.37,2013-10-04 18:43:00,
2013-10-04 13:48:00,83.2,69.8,29.92,South,191,11.5,11.5,64,0.00,CLR,,0.00,WeatherDisplay:10.37,2013-10-04 18:48:00,
2013-10-04 13:53:00,83.2,69.8,29.91,SSW,206,13.8,13.8,64,0.00,CLR,,0.00,WeatherDisplay:10.37,2013-10-04 18:53:00,
2013-10-04 13:58:00,83.2,70.2,29.91,SSW,198,17.3,17.3,65,0.00,CLR,,0.00,WeatherDisplay:10.37,2013-10-04 18:58:00,
2013-10-04 14:03:00,82.9,70.4,29.91,SSW,213,12.7,12.7,66,0.00,CLR,,0.00,WeatherDisplay:10.37,2013-10-04 19:03:00,
2013-10-04 14:08:00,82.1,70.1,29.91,SSW,194,15.0,15.0,67,0.00,CLR,,0.00,WeatherDisplay:10.37,2013-10-04 19:08:00,
2013-10-04 14:13:00,81.6,70.0,29.91,SSE,147,10.4,10.4,68,0.00,CLR,,0.00,WeatherDisplay:10.37,2013-10-04 19:13:00,
2013-10-04 14:18:00,81.4,70.2,29.91,SSE,151,13.8,13.8,69,0.00,CLR,,0.00,WeatherDisplay:10.37,2013-10-04 19:18:00,
2013-10-04 14:23:00,81.2,70.5,29.91,SSE,159,11.0,11.0,70,0.00,CLR,,0.00,WeatherDisplay:10.37,2013-10-04 19:23:00,
2013-10-04 14:28:00,80.9,70.2,29.91,SSE,161,11.0,11.0,70,0.00,CLR,,0.00,WeatherDisplay:10.37,2013-10-04 19:28:00,
2013-10-04 14:33:00,80.9,70.6,29.91,South,183,11.0,11.0,71,0.00,CLR,,0.00,WeatherDisplay:10.37,2013-10-04 19:33:00,
2013-10-04 14:38:00,80.9,70.6,29.91,SSE,163,6.9,6.9,71,0.00,CLR,,0.00,WeatherDisplay:10.37,2013-10-04 19:38:00,
2013-10-04 14:43:00,81.0,70.7,29.91,SSE,163,6.9,6.9,71,0.00,CLR,,0.00,WeatherDisplay:10.37,2013-10-04 19:43:00,
2013-10-04 14:48:00,81.1,70.8,29.91,SSE,160,9.2,9.2,71,0.00,CLR,,0.00,WeatherDisplay:10.37,2013-10-04 19:48:00,
2013-10-04 14:53:00,81.2,70.5,29.91,South,186,10.4,10.4,70,0.00,CLR,,0.00,WeatherDisplay:10.37,2013-10-04 19:53:00,
2013-10-04 14:58:00,81.5,70.3,29.91,South,175,12.7,12.7,69,0.00,CLR,,0.00,WeatherDisplay:10.37,2013-10-04 19:58:00,
2013-10-04 15:03:00,82.2,71.0,29.90,SSW,205,13.8,13.8,69,0.00,CLR,,0.00,WeatherDisplay:10.37,2013-10-04 20:03:00,
2013-10-04 15:08:00,82.6,71.4,29.90,SSW,213,10.0,10.0,69,0.00,CLR,,0.00,WeatherDisplay:10.37,2013-10-04 20:08:00,
2013-10-04 15:13:00,82.1,70.5,29.90,SSW,202,11.5,11.5,68,0.00,CLR,,0.00,WeatherDisplay:10.37,2013-10-04 20:13:00,
2013-10-04 15:18:00,82.2,70.6,29.90,SSE,157,11.5,11.5,68,0.00,CLR,,0.00,WeatherDisplay:10.37,2013-10-04 20:18:00,
2013-10-04 15:23:00,82.4,70.8,29.90,SE,138,9.2,9.2,68,0.00,CLR,,0.00,WeatherDisplay:10.37,2013-10-04 20:23:00,
2013-10-04 15:28:00,82.9,70.8,29.90,SSE,167,3.5,3.5,67,0.00,CLR,,0.00,WeatherDisplay:10.37,2013-10-04 20:28:00,
2013-10-04 15:33:00,82.7,70.6,29.90,ESE,118,10.4,10.4,67,0.00,CLR,,0.00,WeatherDisplay:10.37,2013-10-04 20:33:00,
2013-10-04 15:38:00,82.6,70.5,29.90,ESE,115,9.2,9.2,67,0.00,CLR,,0.00,WeatherDisplay:10.37,2013-10-04 20:38:00,
2013-10-04 15:43:00,82.3,70.7,29.90,East,98,12.0,12.0,68,0.00,CLR,,0.00,WeatherDisplay:10.37,2013-10-04 20:43:00,
2013-10-04 15:48:00,82.3,69.8,29.89,ESE,120,6.9,6.9,66,0.00,CLR,,0.00,WeatherDisplay:10.37,2013-10-04 20:48:00,
2013-10-04 15:53:00,82.7,69.7,29.89,ESE,109,11.0,11.0,65,0.00,CLR,,0.00,WeatherDisplay:10.37,2013-10-04 20:53:00,
2013-10-04 15:58:00,82.7,70.6,29.89,ESE,105,13.0,13.0,67,0.00,CLR,,0.00,WeatherDisplay:10.37,2013-10-04 20:58:00,
2013-10-04 16:03:00,82.0,70.4,29.89,ESE,123,16.1,16.1,68,0.00,CLR,,0.00,WeatherDisplay:10.37,2013-10-04 21:03:00,
2013-10-04 16:08:00,81.1,70.0,29.90,SE,144,17.3,17.3,69,0.00,CLR,,0.00,WeatherDisplay:10.37,2013-10-04 21:08:00,
2013-10-04 16:13:00,80.3,69.2,29.90,SE,134,18.4,18.4,69,0.00,CLR,,0.00,WeatherDisplay:10.37,2013-10-04 21:13:00,
2013-10-04 16:18:00,80.0,69.3,29.90,East,100,11.5,11.5,70,0.00,CLR,,0.00,WeatherDisplay:10.37,2013-10-04 21:18:00,
2013-10-04 16:23:00,80.0,69.3,29.90,East,98,11.5,11.5,70,0.00,CLR,,0.00,WeatherDisplay:10.37,2013-10-04 21:23:00,
2013-10-04 16:28:00,79.9,69.7,29.90,ESE,118,15.0,15.0,71,0.00,CLR,,0.00,WeatherDisplay:10.37,2013-10-04 21:28:00,
2013-10-04 16:33:00,79.8,70.0,29.90,ESE,111,11.5,11.5,72,0.00,CLR,,0.00,WeatherDisplay:10.37,2013-10-04 21:33:00,
2013-10-04 16:38:00,79.7,69.9,29.90,SE,144,12.7,12.7,72,0.00,CLR,,0.00,WeatherDisplay:10.37,2013-10-04 21:38:00,
2013-10-04 16:43:00,79.6,69.8,29.90,SE,134,19.6,19.6,72,0.00,CLR,,0.00,WeatherDisplay:10.37,2013-10-04 21:43:00,
2013-10-04 16:48:00,79.4,70.0,29.90,ESE,114,13.0,13.0,73,0.00,CLR,,0.00,WeatherDisplay:10.37,2013-10-04 21:48:00,
2013-10-04 16:53:00,79.3,69.9,29.89,ESE,107,11.5,11.5,73,0.00,CLR,,0.00,WeatherDisplay:10.37,2013-10-04 21:53:00,
2013-10-04 16:58:00,79.5,70.1,29.90,ESE,111,9.2,9.2,73,0.00,CLR,,0.00,WeatherDisplay:10.37,2013-10-04 21:58:00,
2013-10-04 17:03:00,79.4,69.6,29.89,SE,130,17.3,17.3,72,0.00,CLR,,0.00,WeatherDisplay:10.37,2013-10-04 22:03:00,
2013-10-04 17:08:00,79.1,69.7,29.89,SE,124,12.7,12.7,73,0.00,CLR,,0.00,WeatherDisplay:10.37,2013-10-04 22:08:00,
2013-10-04 17:13:00,78.9,69.5,29.89,ESE,117,10.4,10.4,73,0.00,CLR,,0.00,WeatherDisplay:10.37,2013-10-04 22:13:00,
2013-10-04 17:18:00,78.8,69.4,29.90,SE,129,15.0,15.0,73,0.00,CLR,,0.00,WeatherDisplay:10.37,2013-10-04 22:18:00,
2013-10-04 17:23:00,78.5,69.1,29.90,ESE,123,11.5,11.5,73,0.00,CLR,,0.00,WeatherDisplay:10.37,2013-10-04 22:23:00,
2013-10-04 17:28:00,78.4,69.0,29.90,East,95,11.5,11.5,73,0.00,CLR,,0.00,WeatherDisplay:10.37,2013-10-04 22:28:00,
2013-10-04 17:33:00,78.4,69.4,29.90,ESE,111,11.5,11.5,74,0.00,CLR,,0.00,WeatherDisplay:10.37,2013-10-04 22:33:00,
2013-10-04 17:38:00,78.4,69.4,29.90,ESE,114,10.4,10.4,74,0.00,CLR,,0.00,WeatherDisplay:10.37,2013-10-04 22:38:00,
2013-10-04 17:43:00,78.2,69.2,29.90,ESE,121,11.5,11.5,74,0.00,CLR,,0.00,WeatherDisplay:10.37,2013-10-04 22:43:00,
2013-10-04 17:48:00,78.1,69.5,29.91,SE,124,12.7,12.7,75,0.00,CLR,,0.00,WeatherDisplay:10.37,2013-10-04 22:48:00,
2013-10-04 17:53:00,77.9,69.3,29.90,ESE,121,13.8,13.8,75,0.00,CLR,,0.00,WeatherDisplay:10.37,2013-10-04 22:53:00,
2013-10-04 17:58:00,77.8,69.6,29.90,ESE,116,10.4,10.4,76,0.00,CLR,,0.00,WeatherDisplay:10.37,2013-10-04 22:58:00,
2013-10-04 18:03:00,77.6,69.4,29.90,ESE,117,11.0,11.0,76,0.00,CLR,,0.00,WeatherDisplay:10.37,2013-10-04 23:03:00,
2013-10-04 18:08:00,77.4,69.2,29.91,SE,125,11.5,11.5,76,0.00,CLR,,0.00,WeatherDisplay:10.37,2013-10-04 23:08:00,
2013-10-04 18:13:00,77.2,69.4,29.90,SE,132,9.0,9.0,77,0.00,CLR,,0.00,WeatherDisplay:10.37,2013-10-04 23:13:00,
2013-10-04 18:19:00,77.1,69.3,29.90,ESE,123,11.5,11.5,77,0.00,CLR,,0.00,WeatherDisplay:10.37,2013-10-04 23:19:00,
2013-10-04 18:24:00,76.9,69.1,29.90,SE,127,10.4,10.4,77,0.00,CLR,,0.00,WeatherDisplay:10.37,2013-10-04 23:24:00,
2013-10-04 18:29:00,76.7,69.3,29.90,ESE,110,11.5,11.5,78,0.00,CLR,,0.00,WeatherDisplay:10.37,2013-10-04 23:29:00,
2013-10-04 18:34:00,76.4,69.0,29.91,SE,129,15.0,15.0,78,0.00,CLR,,0.00,WeatherDisplay:10.37,2013-10-04 23:34:00,
2013-10-04 18:39:00,76.1,69.1,29.91,ESE,122,10.4,10.4,79,0.00,CLR,,0.00,WeatherDisplay:10.37,2013-10-04 23:39:00,
2013-10-04 18:44:00,75.9,69.3,29.91,SE,126,11.5,11.5,80,0.00,CLR,,0.00,WeatherDisplay:10.37,2013-10-04 23:44:00,
2013-10-04 18:49:00,75.8,69.2,29.91,SE,124,11.5,11.5,80,0.00,CLR,,0.00,WeatherDisplay:10.37,2013-10-04 23:49:00,
2013-10-04 18:54:00,75.6,69.4,29.91,SE,129,10.4,10.4,81,0.00,CLR,,0.00,WeatherDisplay:10.37,2013-10-04 23:54:00,
2013-10-04 18:59:00,75.4,69.5,29.91,SE,138,11.5,11.5,82,0.00,CLR,,0.00,WeatherDisplay:10.37,2013-10-04 23:59:00,
2013-10-04 19:04:00,75.3,69.4,29.90,SE,140,12.7,12.7,82,0.00,CLR,,0.00,WeatherDisplay:10.37,2013-10-05 00:04:00,
2013-10-04 19:09:00,75.2,69.7,29.90,SE,130,12.7,13.0,83,0.00,CLR,,0.00,WeatherDisplay:10.37,2013-10-05 00:09:00,
2013-10-04 19:14:00,75.3,69.4,29.91,SE,130,11.5,11.5,82,0.00,CLR,,0.00,WeatherDisplay:10.37,2013-10-05 00:14:00,
2013-10-04 19:19:00,75.3,69.8,29.91,SE,129,11.5,11.5,83,0.00,CLR,,0.00,WeatherDisplay:10.37,2013-10-05 00:19:00,
2013-10-04 19:24:00,75.2,69.7,29.91,SE,138,11.5,11.5,83,0.00,CLR,,0.00,WeatherDisplay:10.37,2013-10-05 00:24:00,
2013-10-04 19:29:00,75.1,69.9,29.91,SE,133,11.5,11.5,84,0.00,CLR,,0.00,WeatherDisplay:10.37,2013-10-05 00:29:00,
2013-10-04 19:34:00,75.1,69.9,29.91,SE,131,10.4,10.4,84,0.00,CLR,,0.00,WeatherDisplay:10.37,2013-10-05 00:34:00,
2013-10-04 19:39:00,74.9,69.7,29.92,SE,133,9.2,9.2,84,0.00,CLR,,0.00,WeatherDisplay:10.37,2013-10-05 00:39:00,
2013-10-04 19:44:00,74.8,70.0,29.92,SE,135,10.4,10.4,85,0.00,CLR,,0.00,WeatherDisplay:10.37,2013-10-05 00:44:00,
2013-10-04 19:49:00,74.8,70.0,29.92,SE,134,10.4,10.4,85,0.00,CLR,,0.00,WeatherDisplay:10.37,2013-10-05 00:49:00,
2013-10-04 19:54:00,74.8,70.0,29.92,SE,138,9.2,9.2,85,0.00,CLR,,0.00,WeatherDisplay:10.37,2013-10-05 00:54:00,
2013-10-04 19:59:00,74.8,70.0,29.92,SE,136,8.0,8.0,85,0.00,CLR,,0.00,WeatherDisplay:10.37,2013-10-05 00:59:00,
2013-10-04 20:04:00,74.7,69.9,29.92,SE,138,8.0,8.0,85,0.00,CLR,,0.00,WeatherDisplay:10.37,2013-10-05 01:04:00,
2013-10-04 20:09:00,74.6,70.1,29.92,SE,144,11.5,11.5,86,0.00,CLR,,0.00,WeatherDisplay:10.37,2013-10-05 01:09:00,
2013-10-04 20:14:00,74.7,70.2,29.92,SE,143,10.4,10.4,86,0.00,CLR,,0.00,WeatherDisplay:10.37,2013-10-05 01:14:00,
2013-10-04 20:19:00,74.7,70.2,29.92,SSE,148,10.0,10.0,86,0.00,CLR,,0.00,WeatherDisplay:10.37,2013-10-05 01:19:00,
2013-10-04 20:24:00,74.7,70.2,29.92,SSE,153,10.4,10.4,86,0.00,CLR,,0.00,WeatherDisplay:10.37,2013-10-05 01:24:00,
2013-10-04 20:29:00,74.8,70.0,29.92,SSE,156,12.0,12.0,85,0.00,CLR,,0.00,WeatherDisplay:10.37,2013-10-05 01:29:00,
2013-10-04 20:34:00,74.9,70.1,29.92,SSE,152,11.5,11.5,85,0.00,CLR,,0.00,WeatherDisplay:10.37,2013-10-05 01:34:00,
2013-10-04 20:39:00,74.9,70.1,29.93,SE,146,9.2,9.2,85,0.00,CLR,,0.00,WeatherDisplay:10.37,2013-10-05 01:39:00,
2013-10-04 20:44:00,74.8,70.0,29.92,SE,144,8.1,8.1,85,0.00,CLR,,0.00,WeatherDisplay:10.37,2013-10-05 01:44:00,
2013-10-04 20:49:00,74.7,69.9,29.93,SE,136,6.9,6.9,85,0.00,CLR,,0.00,WeatherDisplay:10.37,2013-10-05 01:49:00,
2013-10-04 20:54:00,74.5,69.7,29.93,SE,132,8.1,8.1,85,0.00,CLR,,0.00,WeatherDisplay:10.37,2013-10-05 01:54:00,
2013-10-04 20:59:00,74.4,69.9,29.93,SE,137,6.9,6.9,86,0.00,CLR,,0.00,WeatherDisplay:10.37,2013-10-05 01:59:00,
2013-10-04 21:04:00,74.2,69.7,29.93,SE,136,6.9,6.9,86,0.00,CLR,,0.00,WeatherDisplay:10.37,2013-10-05 02:04:00,
2013-10-04 21:09:00,74.0,69.9,29.93,SE,135,8.1,8.1,87,0.00,CLR,,0.00,WeatherDisplay:10.37,2013-10-05 02:09:00,
2013-10-04 21:14:00,73.9,69.8,29.93,SE,134,8.1,8.1,87,0.00,CLR,,0.00,WeatherDisplay:10.37,2013-10-05 02:14:00,
2013-10-04 21:19:00,73.8,69.7,29.93,SE,134,6.9,6.9,87,0.00,CLR,,0.00,WeatherDisplay:10.37,2013-10-05 02:19:00,
2013-10-04 21:24:00,73.6,69.5,29.94,SE,136,9.2,9.2,87,0.00,CLR,,0.00,WeatherDisplay:10.37,2013-10-05 02:24:00,
2013-10-04 21:29:00,73.5,69.7,29.94,SE,136,5.8,5.8,88,0.00,CLR,,0.00,WeatherDisplay:10.37,2013-10-05 02:29:00,
2013-10-04 21:34:00,73.3,69.5,29.94,SE,138,6.9,6.9,88,0.00,CLR,,0.00,WeatherDisplay:10.37,2013-10-05 02:34:00,
2013-10-04 21:39:00,73.3,69.5,29.94,SE,138,5.0,7.0,88,0.00,CLR,,0.00,WeatherDisplay:10.37,2013-10-05 02:39:00,
2013-10-04 21:44:00,73.2,69.4,29.94,SE,140,6.9,6.9,88,0.00,CLR,,0.00,WeatherDisplay:10.37,2013-10-05 02:44:00,
2013-10-04 21:49:00,73.2,69.4,29.94,SE,140,5.8,5.8,88,0.00,CLR,,0.00,WeatherDisplay:10.37,2013-10-05 02:49:00,
2013-10-04 21:54:00,73.1,69.3,29.94,SE,140,6.0,6.0,88,0.00,CLR,,0.00,WeatherDisplay:10.37,2013-10-05 02:54:00,
2013-10-04 21:59:00,73.0,69.2,29.94,SE,140,4.6,4.6,88,0.00,CLR,,0.00,WeatherDisplay:10.37,2013-10-05 02:59:00,
2013-10-04 22:04:00,72.9,69.1,29.94,SE,140,6.9,6.9,88,0.00,CLR,,0.00,WeatherDisplay:10.37,2013-10-05 03:04:00,
2013-10-04 22:09:00,72.8,69.4,29.94,SE,141,6.9,6.9,89,0.00,CLR,,0.00,WeatherDisplay:10.37,2013-10-05 03:09:00,
2013-10-04 22:14:00,72.6,69.2,29.94,SE,140,6.9,6.9,89,0.00,CLR,,0.00,WeatherDisplay:10.37,2013-10-05 03:14:00,
2013-10-04 22:19:00,72.6,69.2,29.94,SE,140,8.1,8.1,89,0.00,CLR,,0.00,WeatherDisplay:10.37,2013-10-05 03:19:00,
2013-10-04 22:25:00,72.5,69.1,29.94,SE,141,9.2,9.2,89,0.00,CLR,,0.00,WeatherDisplay:10.37,2013-10-05 03:25:00,
2013-10-04 22:30:00,72.4,69.0,29.94,SE,143,5.8,5.8,89,0.00,CLR,,0.00,WeatherDisplay:10.37,2013-10-05 03:30:00,
2013-10-04 22:35:00,72.4,69.0,29.94,SE,144,5.8,5.8,89,0.00,CLR,,0.00,WeatherDisplay:10.37,2013-10-05 03:35:00,
2013-10-04 22:40:00,72.3,68.9,29.94,SSE,152,6.0,6.0,89,0.00,CLR,,0.00,WeatherDisplay:10.37,2013-10-05 03:40:00,
2013-10-04 22:45:00,72.4,69.0,29.94,SSE,154,11.5,11.5,89,0.00,CLR,,0.00,WeatherDisplay:10.37,2013-10-05 03:45:00,
2013-10-04 22:50:00,72.5,69.1,29.94,SSE,165,10.4,10.4,89,0.00,CLR,,0.00,WeatherDisplay:10.37,2013-10-05 03:50:00,
2013-10-04 22:55:00,72.7,69.3,29.94,SSE,159,8.1,8.1,89,0.00,CLR,,0.00,WeatherDisplay:10.37,2013-10-05 03:55:00,
2013-10-04 23:00:00,72.8,69.0,29.93,South,184,11.5,11.5,88,0.00,CLR,,0.00,WeatherDisplay:10.37,2013-10-05 04:00:00,
2013-10-04 23:01:00,72.8,69.0,29.93,SSE,165,11.5,11.5,88,0.00,CLR,,0.00,WeatherDisplay:10.37,2013-10-05 04:01:00,
2013-10-04 23:02:00,72.9,69.1,29.93,SSE,165,9.2,9.2,88,0.00,CLR,,0.00,WeatherDisplay:10.37,2013-10-05 04:02:00,
2013-10-04 23:03:00,72.9,69.1,29.93,South,186,12.7,12.7,88,0.00,CLR,,0.00,WeatherDisplay:10.37,2013-10-05 04:03:00,
2013-10-04 23:08:00,73.0,69.2,29.93,South,171,12.7,12.7,88,0.00,CLR,,0.00,WeatherDisplay:10.37,2013-10-05 04:08:00,
2013-10-04 23:13:00,73.1,69.0,29.93,SSE,153,11.5,11.5,87,0.00,CLR,,0.00,WeatherDisplay:10.37,2013-10-05 04:13:00,
2013-10-04 23:18:00,73.2,69.1,29.93,South,171,10.4,10.4,87,0.00,CLR,,0.00,WeatherDisplay:10.37,2013-10-05 04:18:00,
2013-10-04 23:23:00,73.2,69.1,29.93,South,180,11.5,11.5,87,0.00,CLR,,0.00,WeatherDisplay:10.37,2013-10-05 04:23:00,
2013-10-04 23:28:00,73.1,69.0,29.93,South,181,11.5,11.5,87,0.00,CLR,,0.00,WeatherDisplay:10.37,2013-10-05 04:28:00,
2013-10-04 23:33:00,73.1,69.0,29.93,SSE,158,11.5,11.5,87,0.00,CLR,,0.00,WeatherDisplay:10.37,2013-10-05 04:33:00,
2013-10-04 23:38:00,73.0,69.2,29.93,SSE,167,10.4,10.4,88,0.00,CLR,,0.00,WeatherDisplay:10.37,2013-10-05 04:38:00,
2013-10-04 23:43:00,72.9,69.1,29.93,SSE,166,9.2,9.2,88,0.00,CLR,,0.00,WeatherDisplay:10.37,2013-10-05 04:43:00,
2013-10-04 23:48:00,72.8,69.0,29.93,SSE,155,10.4,10.4,88,0.00,CLR,,0.00,WeatherDisplay:10.37,2013-10-05 04:48:00,
2013-10-04 23:53:00,72.6,68.8,29.93,SSE,157,11.5,11.5,88,0.00,CLR,,0.00,WeatherDisplay:10.37,2013-10-05 04:53:00,
2013-10-04 23:58:00,72.4,68.6,29.93,South,175,10.4,10.4,88,0.00,CLR,,0.00,WeatherDisplay:10.37,2013-10-05 04:58:00,